createdAt,value
2023-05-16T16:39:49.889Z,17.20
2023-05-16T16:44:54.173Z,16.50
2023-05-16T16:49:58.506Z,16.40
2023-05-16T16:55:05.597Z,16.20
2023-05-16T17:00:13.608Z,16.00
2023-05-16T17:05:17.731Z,16.00
2023-05-16T17:10:23.806Z,16.20
2023-05-16T17:15:28.505Z,16.40
2023-05-16T17:20:33.221Z,16.30
2023-05-16T17:25:39.508Z,16.10
2023-05-16T17:30:43.519Z,15.90
2023-05-16T17:35:47.831Z,15.80
2023-05-16T17:40:53.777Z,15.60
2023-05-16T17:45:58.061Z,15.40
2023-05-16T17:51:02.881Z,15.00
2023-05-16T17:56:09.523Z,14.80
2023-05-16T18:01:13.690Z,14.60
2023-05-16T18:06:17.889Z,14.50
2023-05-16T18:11:24.279Z,14.40
2023-05-16T18:16:28.381Z,14.40
2023-05-16T18:21:32.586Z,14.50
2023-05-16T18:26:38.757Z,14.50
2023-05-16T18:31:45.020Z,14.50
2023-05-16T18:36:49.152Z,14.40
2023-05-16T18:41:55.094Z,14.30
2023-05-16T18:46:59.211Z,14.30
2023-05-16T18:52:03.176Z,14.20
2023-05-16T18:57:09.305Z,14.20
2023-05-16T19:02:16.043Z,14.20
2023-05-16T19:07:20.229Z,14.10
2023-05-16T19:12:26.532Z,13.90
2023-05-16T19:17:30.931Z,13.90
2023-05-16T19:22:35.045Z,13.80
2023-05-16T19:27:42.766Z,13.70
2023-05-16T19:32:46.763Z,13.70
2023-05-16T19:37:51.191Z,13.60
2023-05-16T19:42:57.182Z,13.60
2023-05-16T19:48:01.298Z,13.60
2023-05-16T19:53:05.546Z,13.50
2023-05-16T19:58:11.613Z,13.50
2023-05-16T20:03:15.968Z,13.50
2023-05-16T20:08:20.221Z,13.50
2023-05-16T20:13:26.388Z,13.50
2023-05-16T20:18:30.590Z,13.50
2023-05-16T20:23:35.654Z,13.50
2023-05-16T20:28:41.636Z,13.40
2023-05-16T20:33:46.302Z,13.30
